createdAt,value
2023-11-17T00:02:34.159Z,22.20
2023-11-17T00:05:22.369Z,19.70
2023-11-17T00:08:09.365Z,18.02
2023-11-17T00:10:55.290Z,19.55
2023-11-17T00:13:41.259Z,18.15
2023-11-17T00:16:26.917Z,23.35
2023-11-17T00:19:12.782Z,18.77
2023-11-17T00:21:58.542Z,19.45
2023-11-17T00:24:45.852Z,19.38
2023-11-17T00:27:31.399Z,16.77
2023-11-17T00:30:16.901Z,19.50
2023-11-17T00:33:02.795Z,16.33
2023-11-17T00:35:48.505Z,20.63
2023-11-17T00:38:37.313Z,19.90
2023-11-17T00:41:30.477Z,18.05
2023-11-17T00:44:17.297Z,16.65
2023-11-17T00:47:05.397Z,18.15
2023-11-17T00:49:52.709Z,21.63
2023-11-17T00:52:39.701Z,22.95
2023-11-17T00:55:25.442Z,20.27
2023-11-17T00:58:12.722Z,23.90
2023-11-17T01:00:58.559Z,17.38
2023-11-17T01:03:46.439Z,19.33
2023-11-17T01:06:32.198Z,19.83
2023-11-17T01:09:18.802Z,19.85
2023-11-17T01:12:04.935Z,18.65
2023-11-17T01:14:51.794Z,17.25
2023-11-17T01:17:37.541Z,19.02
2023-11-17T01:20:23.769Z,18.65
2023-11-17T01:23:09.553Z,18.73
2023-11-17T01:25:55.608Z,27.17
2023-11-17T01:28:43.362Z,21.80
2023-11-17T01:31:30.684Z,18.75
2023-11-17T01:34:17.603Z,20.70
2023-11-17T01:37:03.769Z,19.48
2023-11-17T01:39:49.605Z,18.30
2023-11-17T01:42:38.124Z,22.00
2023-11-17T01:45:23.760Z,18.58
2023-11-17T01:48:11.052Z,17.73
2023-11-17T01:50:57.772Z,22.33
2023-11-17T01:53:43.673Z,24.98
2023-11-17T01:56:30.693Z,21.17
2023-11-17T01:59:17.069Z,20.48
2023-11-17T02:02:02.692Z,20.65
2023-11-17T02:04:49.755Z,25.42
2023-11-17T02:07:43.033Z,25.35
2023-11-17T02:10:37.479Z,21.77
2023-11-17T02:13:27.507Z,22.58
2023-11-17T02:16:18.555Z,28.15
2023-11-17T02:21:57.927Z,18.95
2023-11-17T02:24:51.646Z,20.50
2023-11-17T02:27:44.676Z,24.20
2023-11-17T02:30:35.212Z,20.30
2023-11-17T02:33:21.211Z,21.50
2023-11-17T02:36:18.157Z,17.40
2023-11-17T02:39:16.548Z,18.45
2023-11-17T02:42:11.573Z,19.95
2023-11-17T02:45:01.744Z,21.83
2023-11-17T02:47:49.964Z,24.08
2023-11-17T02:51:01.572Z,21.52
2023-11-17T02:53:50.798Z,22.52
2023-11-17T02:56:39.646Z,24.50
2023-11-17T02:59:26.142Z,24.70
2023-11-17T03:02:16.383Z,21.30
2023-11-17T03:05:03.409Z,21.60
2023-11-17T03:07:49.379Z,23.20
2023-11-17T03:10:35.733Z,19.60
2023-11-17T03:13:21.366Z,22.58
2023-11-17T03:16:07.496Z,20.60
2023-11-17T03:18:54.177Z,20.40
2023-11-17T03:21:45.811Z,22.15
2023-11-17T03:24:35.213Z,17.00
2023-11-17T03:27:20.856Z,21.25
2023-11-17T03:30:10.702Z,19.60
2023-11-17T03:32:56.431Z,25.92
2023-11-17T03:35:42.296Z,23.70
2023-11-17T03:38:29.653Z,25.50
2023-11-17T03:41:16.312Z,25.83
2023-11-17T03:44:02.153Z,32.30
2023-11-17T03:46:49.719Z,30.30
2023-11-17T03:49:36.437Z,26.08
2023-11-17T03:52:24.584Z,21.35
2023-11-17T03:55:12.714Z,26.85
2023-11-17T03:57:58.633Z,21.98
2023-11-17T04:00:50.163Z,27.52
2023-11-17T04:03:36.161Z,29.15
2023-11-17T04:06:22.197Z,26.77
2023-11-17T04:09:13.618Z,31.83
2023-11-17T04:14:49.739Z,29.07
2023-11-17T04:17:37.281Z,29.48
2023-11-17T04:20:23.844Z,25.23
2023-11-17T04:23:10.352Z,29.60
2023-11-17T04:25:56.265Z,35.45
2023-11-17T04:28:45.303Z,29.45
2023-11-17T04:31:30.907Z,25.67
2023-11-17T04:34:16.697Z,31.63
2023-11-17T04:37:06.675Z,33.75
2023-11-17T04:39:52.739Z,30.88
2023-11-17T04:42:41.450Z,33.78
2023-11-17T04:45:28.442Z,34.92
2023-11-17T04:48:15.090Z,33.63
2023-11-17T04:51:00.630Z,35.65
2023-11-17T04:53:46.079Z,34.30
2023-11-17T04:56:32.399Z,39.72
2023-11-17T04:59:18.117Z,42.33
2023-11-17T05:02:05.484Z,31.15
2023-11-17T05:04:53.004Z,34.83
2023-11-17T05:07:40.896Z,33.13
2023-11-17T05:10:27.552Z,35.95
2023-11-17T05:13:14.474Z,40.83
2023-11-17T05:16:04.503Z,50.25
2023-11-17T05:18:51.519Z,39.78
2023-11-17T05:21:37.032Z,36.80
2023-11-17T05:24:22.613Z,33.28
2023-11-17T05:27:08.000Z,35.72
2023-11-17T05:29:53.857Z,37.03
2023-11-17T05:32:41.382Z,39.60
2023-11-17T05:35:28.421Z,44.75
2023-11-17T05:38:13.938Z,43.03
2023-11-17T05:40:59.892Z,49.22
2023-11-17T05:43:48.394Z,54.17
2023-11-17T05:46:34.660Z,40.35
2023-11-17T05:49:20.641Z,31.55
2023-11-17T05:52:07.682Z,40.55
2023-11-17T05:54:53.590Z,38.90
2023-11-17T05:57:43.946Z,32.08
2023-11-17T06:00:31.931Z,24.73
2023-11-17T06:03:17.895Z,26.30
2023-11-17T06:06:04.178Z,23.48
2023-11-17T06:08:51.085Z,26.48
2023-11-17T06:11:40.981Z,28.02
2023-11-17T06:14:31.290Z,45.83
2023-11-17T06:17:17.527Z,38.95
2023-11-17T06:20:04.935Z,35.20
2023-11-17T06:22:50.753Z,30.90
2023-11-17T06:25:37.861Z,32.33
2023-11-17T06:28:24.567Z,27.65
2023-11-17T06:31:10.262Z,25.65
2023-11-17T06:33:56.241Z,28.98
2023-11-17T06:36:42.563Z,29.95
2023-11-17T06:39:30.835Z,29.40
2023-11-17T06:42:18.531Z,28.85
2023-11-17T06:45:04.629Z,29.73
2023-11-17T06:47:52.919Z,37.08
2023-11-17T06:50:38.665Z,39.08
2023-11-17T06:53:24.849Z,39.25
2023-11-17T06:56:11.120Z,34.08
2023-11-17T06:58:57.998Z,39.88
2023-11-17T07:01:44.633Z,35.05
2023-11-17T07:04:34.605Z,42.55
2023-11-17T07:07:20.576Z,42.60
2023-11-17T07:10:08.439Z,37.55
2023-11-17T07:12:54.363Z,41.75
2023-11-17T07:15:41.947Z,47.25
2023-11-17T07:18:28.622Z,40.72
2023-11-17T07:21:15.147Z,52.13
2023-11-17T07:24:01.680Z,35.72
2023-11-17T07:26:48.338Z,38.63
2023-11-17T07:29:35.864Z,36.88
2023-11-17T07:32:22.967Z,36.08
2023-11-17T07:35:09.021Z,39.28
2023-11-17T07:37:54.806Z,33.00
2023-11-17T07:40:41.025Z,40.70
2023-11-17T07:43:26.945Z,32.67
2023-11-17T07:46:13.023Z,38.33
2023-11-17T07:49:01.015Z,32.75
2023-11-17T07:51:48.450Z,30.27
2023-11-17T07:54:34.307Z,25.10
2023-11-17T07:57:20.648Z,32.15
2023-11-17T08:00:18.477Z,37.00
2023-11-17T08:03:05.780Z,37.92
2023-11-17T08:05:52.934Z,31.00
2023-11-17T08:08:41.894Z,34.65
2023-11-17T08:11:27.506Z,32.22
2023-11-17T08:14:14.526Z,32.28
2023-11-17T08:17:00.436Z,28.48
2023-11-17T08:19:46.673Z,22.30
2023-11-17T08:22:34.994Z,28.85
2023-11-17T08:25:20.950Z,21.70
2023-11-17T08:28:08.099Z,30.48
2023-11-17T08:30:53.741Z,31.75
2023-11-17T08:33:39.890Z,29.02
2023-11-17T08:36:29.111Z,24.38
2023-11-17T08:39:27.076Z,23.10
2023-11-17T08:42:14.323Z,29.58
2023-11-17T08:44:59.885Z,25.85
2023-11-17T08:47:49.796Z,30.23
2023-11-17T08:50:35.532Z,30.63
2023-11-17T08:53:21.019Z,26.85
2023-11-17T08:56:08.524Z,31.02
2023-11-17T08:58:54.409Z,27.05
2023-11-17T09:01:40.513Z,26.02
2023-11-17T09:04:26.259Z,27.25
2023-11-17T09:07:12.249Z,26.08
2023-11-17T09:09:57.937Z,26.70
2023-11-17T09:12:47.731Z,25.52
2023-11-17T09:15:34.535Z,24.58
2023-11-17T09:18:20.574Z,21.75
2023-11-17T09:21:07.206Z,18.98
2023-11-17T09:23:53.138Z,20.65
2023-11-17T09:26:38.631Z,22.35
2023-11-17T09:29:26.769Z,22.08
2023-11-17T09:32:13.326Z,20.42
2023-11-17T09:34:59.099Z,24.73
2023-11-17T09:37:50.580Z,18.25
2023-11-17T09:40:38.093Z,20.58
2023-11-17T09:43:25.038Z,19.88
2023-11-17T09:46:13.863Z,18.90
2023-11-17T09:49:03.570Z,19.42
2023-11-17T09:51:50.634Z,17.63
2023-11-17T09:54:37.881Z,14.98
2023-11-17T09:57:25.144Z,17.80
2023-11-17T10:00:18.630Z,18.05
2023-11-17T10:03:06.506Z,18.15
2023-11-17T10:05:55.136Z,19.17
2023-11-17T10:08:42.523Z,18.38
2023-11-17T10:11:28.971Z,25.95
2023-11-17T10:14:15.951Z,21.00
2023-11-17T10:17:04.429Z,23.27
2023-11-17T10:19:52.250Z,16.60
2023-11-17T10:22:43.958Z,16.85
2023-11-17T10:25:30.666Z,15.48
2023-11-17T10:28:18.973Z,13.93
2023-11-17T10:31:08.922Z,9.65
2023-11-17T10:33:57.002Z,11.90
2023-11-17T10:37:00.113Z,7.50
2023-11-17T10:40:00.363Z,12.10
2023-11-17T10:43:02.928Z,11.88
2023-11-17T10:45:58.752Z,9.73
2023-11-17T10:48:44.644Z,10.63
2023-11-17T10:51:32.028Z,9.30
2023-11-17T10:54:20.181Z,8.93
2023-11-17T10:57:14.137Z,8.15
2023-11-17T10:59:59.821Z,6.40
2023-11-17T11:02:45.652Z,5.20
2023-11-17T11:05:31.509Z,5.18
2023-11-17T11:08:23.681Z,4.70
2023-11-17T11:11:10.812Z,6.95
2023-11-17T11:13:58.542Z,5.22
2023-11-17T11:16:47.570Z,5.15
2023-11-17T11:19:41.060Z,6.15
2023-11-17T11:22:34.555Z,5.28
2023-11-17T11:25:22.470Z,5.70
2023-11-17T11:28:10.809Z,4.68
2023-11-17T11:30:58.748Z,5.15
2023-11-17T11:33:44.300Z,5.60
2023-11-17T11:36:30.307Z,6.22
2023-11-17T11:39:16.250Z,5.70
2023-11-17T11:42:07.789Z,5.88
2023-11-17T11:44:55.855Z,7.65
2023-11-17T11:47:41.948Z,4.82
2023-11-17T11:50:35.657Z,8.82
2023-11-17T11:53:29.121Z,5.20
2023-11-17T11:56:19.474Z,4.63
2023-11-17T11:59:06.961Z,5.07
2023-11-17T12:01:57.821Z,5.47
2023-11-17T12:04:44.215Z,6.72
2023-11-17T12:07:34.539Z,5.65
2023-11-17T12:10:21.024Z,7.25
2023-11-17T12:13:08.598Z,8.10
2023-11-17T12:15:54.454Z,7.50
2023-11-17T12:18:47.868Z,4.95
2023-11-17T12:21:40.857Z,5.82
2023-11-17T12:24:28.127Z,5.22
2023-11-17T12:27:15.962Z,5.60
2023-11-17T12:30:03.478Z,4.97
2023-11-17T12:32:52.821Z,5.15
2023-11-17T12:35:41.128Z,4.50
2023-11-17T12:38:30.182Z,4.63
2023-11-17T12:41:17.718Z,6.97
2023-11-17T12:44:06.793Z,7.78
2023-11-17T12:46:55.289Z,4.50
2023-11-17T12:49:52.880Z,5.65
2023-11-17T12:53:07.501Z,4.13
2023-11-17T12:55:55.252Z,4.57
2023-11-17T12:58:41.528Z,4.70
2023-11-17T13:01:29.569Z,3.67
2023-11-17T13:04:15.480Z,3.47
2023-11-17T13:07:02.492Z,6.88
2023-11-17T13:09:49.753Z,14.25
2023-11-17T13:12:35.348Z,18.55
2023-11-17T13:15:21.229Z,64.97
2023-11-17T13:18:09.994Z,93.22
2023-11-17T13:20:57.113Z,42.33
2023-11-17T13:23:43.344Z,9.32
2023-11-17T13:26:31.125Z,10.15
2023-11-17T13:29:20.413Z,7.00
2023-11-17T13:32:07.055Z,9.65
2023-11-17T13:34:56.001Z,7.03
2023-11-17T13:37:42.292Z,6.30
2023-11-17T13:40:31.479Z,8.55
2023-11-17T13:43:21.104Z,6.95
2023-11-17T13:46:08.148Z,9.18
2023-11-17T13:49:03.209Z,8.48
2023-11-17T13:51:57.639Z,6.45
2023-11-17T13:54:44.308Z,7.47
2023-11-17T13:57:30.141Z,12.15
2023-11-17T14:00:21.866Z,8.95
2023-11-17T14:03:10.147Z,8.88
2023-11-17T14:05:58.445Z,8.90
2023-11-17T14:08:44.230Z,7.78
2023-11-17T14:11:33.179Z,8.60
2023-11-17T14:14:19.152Z,7.53
2023-11-17T14:17:08.104Z,9.77
2023-11-17T14:19:57.026Z,8.40
2023-11-17T14:22:42.901Z,7.57
2023-11-17T14:25:28.945Z,9.73
2023-11-17T14:28:18.257Z,9.73
2023-11-17T14:31:08.794Z,8.27
2023-11-17T14:33:56.107Z,9.25
2023-11-17T14:36:42.356Z,7.93
2023-11-17T14:39:31.948Z,6.03
2023-11-17T14:42:17.950Z,10.50
2023-11-17T14:45:06.093Z,10.55
2023-11-17T14:47:52.184Z,6.53
2023-11-17T14:50:40.671Z,8.68
2023-11-17T14:53:28.969Z,11.05
2023-11-17T14:56:15.497Z,14.95
2023-11-17T14:59:01.769Z,9.57
2023-11-17T15:01:48.320Z,9.05
2023-11-17T15:04:35.791Z,9.00
2023-11-17T15:07:25.266Z,13.52
2023-11-17T15:10:12.172Z,12.93
2023-11-17T15:12:59.757Z,11.25
2023-11-17T15:15:47.749Z,13.15
2023-11-17T15:18:33.436Z,15.13
2023-11-17T15:21:21.435Z,12.60
2023-11-17T15:24:10.276Z,15.27
2023-11-17T15:26:57.362Z,17.83
2023-11-17T15:29:43.728Z,16.02
2023-11-17T15:32:30.012Z,16.80
2023-11-17T15:35:15.861Z,18.33
2023-11-17T15:38:07.790Z,16.20
2023-11-17T15:40:58.360Z,19.08
2023-11-17T15:43:44.356Z,18.58
2023-11-17T15:46:31.207Z,19.73
2023-11-17T15:49:18.116Z,18.65
2023-11-17T15:52:05.322Z,17.08
2023-11-17T15:54:51.809Z,22.50
2023-11-17T15:57:39.070Z,17.25
2023-11-17T16:00:25.149Z,22.80
2023-11-17T16:03:14.126Z,15.95
2023-11-17T16:06:01.027Z,20.92
2023-11-17T16:08:48.015Z,22.42
2023-11-17T16:11:34.417Z,24.40
2023-11-17T16:14:22.255Z,17.60
2023-11-17T16:17:12.643Z,18.95
2023-11-17T16:19:58.735Z,28.70
2023-11-17T16:22:45.934Z,49.78
2023-11-17T16:25:33.492Z,30.42
2023-11-17T16:28:19.381Z,22.20
2023-11-17T16:31:07.899Z,22.50
2023-11-17T16:33:53.765Z,25.85
2023-11-17T16:36:47.295Z,26.15
2023-11-17T16:39:33.500Z,27.15
2023-11-17T16:42:19.752Z,30.52
2023-11-17T16:45:07.222Z,21.40
2023-11-17T16:47:55.084Z,25.25
2023-11-17T16:50:45.988Z,26.63
2023-11-17T16:53:32.414Z,27.77
2023-11-17T16:56:20.030Z,32.30
2023-11-17T16:59:06.037Z,23.80
2023-11-17T17:01:52.162Z,29.52
2023-11-17T17:04:39.567Z,28.35
2023-11-17T17:07:25.971Z,32.15
2023-11-17T17:10:12.590Z,30.80
2023-11-17T17:13:00.181Z,32.53
2023-11-17T17:15:46.586Z,34.10
2023-11-17T17:18:32.458Z,38.58
2023-11-17T17:21:22.149Z,36.42
2023-11-17T17:24:09.333Z,33.85
2023-11-17T17:26:55.135Z,39.22
2023-11-17T17:29:40.692Z,32.75
2023-11-17T17:32:26.074Z,36.63
2023-11-17T17:35:11.975Z,37.58
2023-11-17T17:38:00.044Z,43.83
2023-11-17T17:40:46.847Z,39.17
2023-11-17T17:43:33.032Z,36.67
2023-11-17T17:46:19.110Z,43.13
2023-11-17T17:49:07.292Z,43.60
2023-11-17T17:51:56.532Z,46.00
2023-11-17T17:54:44.475Z,38.92
2023-11-17T17:57:30.486Z,44.47
2023-11-17T18:00:17.649Z,43.72
2023-11-17T18:03:06.290Z,45.03
2023-11-17T18:05:52.633Z,51.13
2023-11-17T18:08:39.998Z,53.53
2023-11-17T18:11:27.291Z,51.20
2023-11-17T18:14:12.832Z,50.70
2023-11-17T18:16:58.606Z,47.60
2023-11-17T18:19:44.501Z,46.33
2023-11-17T18:22:30.315Z,45.55
2023-11-17T18:25:19.852Z,54.22
2023-11-17T18:28:07.208Z,52.90
2023-11-17T18:30:53.470Z,53.20
2023-11-17T18:33:39.430Z,57.28
2023-11-17T18:36:25.260Z,48.38
2023-11-17T18:39:12.943Z,49.50
2023-11-17T18:42:03.263Z,52.15
2023-11-17T18:44:50.421Z,71.80
2023-11-17T18:47:37.961Z,56.88
2023-11-17T18:50:24.042Z,56.35
2023-11-17T18:53:09.908Z,53.42
2023-11-17T18:55:58.663Z,55.80
2023-11-17T18:58:45.170Z,55.72
2023-11-17T19:01:32.852Z,60.70
2023-11-17T19:04:20.459Z,57.60
2023-11-17T19:07:07.123Z,61.10
2023-11-17T19:09:54.011Z,54.78
2023-11-17T19:12:39.889Z,65.63
2023-11-17T19:15:25.791Z,58.88
2023-11-17T19:18:14.816Z,64.60
2023-11-17T19:21:00.772Z,69.75
2023-11-17T19:23:46.777Z,62.20
2023-11-17T19:26:33.152Z,72.13
2023-11-17T19:29:19.229Z,77.10
2023-11-17T19:32:05.430Z,78.47
2023-11-17T19:34:53.109Z,67.85
2023-11-17T19:37:42.499Z,69.07
2023-11-17T19:40:28.487Z,77.53
2023-11-17T19:43:14.526Z,68.70
2023-11-17T19:46:00.319Z,69.50
2023-11-17T19:48:47.618Z,73.88
2023-11-17T19:51:36.332Z,66.70
2023-11-17T19:54:25.542Z,65.90
2023-11-17T19:57:11.904Z,68.45
2023-11-17T19:59:57.910Z,66.10
2023-11-17T20:02:44.385Z,64.50
2023-11-17T20:05:30.260Z,65.10
2023-11-17T20:08:17.664Z,61.25
2023-11-17T20:11:04.808Z,67.50
2023-11-17T20:13:51.093Z,61.42
2023-11-17T20:16:37.144Z,60.95
2023-11-17T20:19:23.874Z,62.83
2023-11-17T20:22:11.128Z,64.45
2023-11-17T20:24:59.076Z,65.07
2023-11-17T20:27:47.437Z,69.28
2023-11-17T20:30:33.184Z,65.18
2023-11-17T20:33:19.374Z,63.47
2023-11-17T20:36:06.476Z,65.18
2023-11-17T20:38:53.044Z,67.00
2023-11-17T20:41:40.188Z,57.83
2023-11-17T20:44:27.663Z,62.47
2023-11-17T20:47:15.022Z,59.47
2023-11-17T20:50:01.421Z,58.85
2023-11-17T20:52:49.406Z,59.25
2023-11-17T20:55:35.552Z,62.03
2023-11-17T20:58:22.846Z,65.32
2023-11-17T21:01:10.575Z,60.35
2023-11-17T21:03:57.447Z,63.25
2023-11-17T21:06:45.037Z,66.43
2023-11-17T21:09:30.531Z,72.43
2023-11-17T21:12:16.342Z,65.95
2023-11-17T21:15:03.601Z,70.57
2023-11-17T21:17:52.376Z,66.18
2023-11-17T21:20:38.716Z,68.15
2023-11-17T21:23:24.488Z,67.00
2023-11-17T21:26:10.304Z,65.30
2023-11-17T21:28:58.651Z,67.55
2023-11-17T21:31:49.935Z,64.93
2023-11-17T21:37:25.967Z,67.22
2023-11-17T21:40:15.746Z,72.45
2023-11-17T21:43:02.204Z,75.80
2023-11-17T21:45:48.220Z,81.47
2023-11-17T21:48:35.318Z,72.38
2023-11-17T21:51:20.974Z,75.72
2023-11-17T21:54:06.707Z,71.72
2023-11-17T21:56:52.299Z,66.35
2023-11-17T21:59:37.764Z,72.32
2023-11-17T22:02:23.542Z,72.10
2023-11-17T22:05:11.644Z,64.30
2023-11-17T22:07:59.819Z,67.20
2023-11-17T22:10:45.827Z,58.20
2023-11-17T22:13:31.414Z,67.35
2023-11-17T22:16:17.102Z,64.93
2023-11-17T22:19:04.715Z,62.13
2023-11-17T22:21:52.037Z,68.85
2023-11-17T22:24:37.829Z,65.32
2023-11-17T22:27:23.765Z,64.05
2023-11-17T22:30:15.209Z,60.42
2023-11-17T22:33:01.506Z,69.60
2023-11-17T22:35:47.094Z,58.08
2023-11-17T22:38:34.315Z,65.25
2023-11-17T22:41:20.479Z,63.78
2023-11-17T22:44:07.720Z,64.57
2023-11-17T22:46:56.318Z,66.40
2023-11-17T22:49:42.208Z,66.88
2023-11-17T22:52:28.197Z,67.10
2023-11-17T22:55:15.715Z,60.00
2023-11-17T22:58:01.545Z,73.53
2023-11-17T23:00:49.107Z,62.88
2023-11-17T23:03:35.217Z,66.65
2023-11-17T23:06:21.011Z,58.58
2023-11-17T23:09:10.785Z,61.63
2023-11-17T23:11:57.674Z,61.00
2023-11-17T23:14:43.366Z,61.97
2023-11-17T23:17:29.224Z,58.55
2023-11-17T23:20:14.884Z,60.17
2023-11-17T23:23:00.907Z,57.03
2023-11-17T23:25:46.489Z,58.63
2023-11-17T23:28:34.233Z,56.17
2023-11-17T23:31:20.287Z,55.17
2023-11-17T23:34:05.996Z,57.25
2023-11-17T23:36:51.647Z,53.85
2023-11-17T23:39:37.413Z,52.65
2023-11-17T23:42:23.045Z,52.33
2023-11-17T23:45:11.128Z,58.00
2023-11-17T23:47:56.908Z,53.45
2023-11-17T23:50:42.569Z,51.38
2023-11-17T23:53:28.061Z,50.22
2023-11-17T23:56:13.924Z,51.03
2023-11-17T23:58:59.852Z,54.17
